createdAt,value
2018-03-21T00:01:58.404Z,77.70
2018-03-21T00:04:02.844Z,77.20
2018-03-21T00:06:06.431Z,77.30
2018-03-21T00:08:11.063Z,80.40
2018-03-21T00:10:15.206Z,78.50
2018-03-21T00:12:18.637Z,78.40
2018-03-21T00:14:21.991Z,80.10
2018-03-21T00:16:25.396Z,80.30
2018-03-21T00:18:28.818Z,79.30
2018-03-21T00:20:33.080Z,80.10
2018-03-21T00:22:36.451Z,79.70
2018-03-21T00:24:39.846Z,78.50
2018-03-21T00:26:44.297Z,77.40
2018-03-21T00:28:47.966Z,77.50
2018-03-21T00:30:53.044Z,78.90
2018-03-21T00:32:56.384Z,78.90
2018-03-21T00:34:59.790Z,78.40
2018-03-21T00:37:03.197Z,78.80
2018-03-21T00:39:06.547Z,76.00
2018-03-21T00:41:10.654Z,78.40
2018-03-21T00:43:14.841Z,78.40
2018-03-21T00:45:18.207Z,78.60
2018-03-21T00:47:22.460Z,75.80
2018-03-21T00:49:27.347Z,78.40
2018-03-21T00:51:30.714Z,78.30
2018-03-21T00:53:34.516Z,75.60
2018-03-21T00:55:37.869Z,78.60
2018-03-21T00:57:42.031Z,79.40
2018-03-21T00:59:45.385Z,79.40
2018-03-21T01:01:49.491Z,77.00
2018-03-21T01:03:53.610Z,77.00
2018-03-21T01:05:56.992Z,76.90
2018-03-21T01:08:01.954Z,78.60
2018-03-21T01:10:05.385Z,75.80
2018-03-21T01:12:10.384Z,75.70
2018-03-21T01:14:14.025Z,75.90
2018-03-21T01:16:19.490Z,76.00
2018-03-21T01:18:23.153Z,76.10
2018-03-21T01:20:28.898Z,75.80
2018-03-21T01:22:34.076Z,76.10
2018-03-21T01:24:38.793Z,78.20
2018-03-21T01:26:42.148Z,78.20
2018-03-21T01:28:45.625Z,77.90
2018-03-21T01:30:49.550Z,75.40
2018-03-21T01:32:53.690Z,75.40
2018-03-21T01:34:57.980Z,75.10
2018-03-21T01:37:01.323Z,74.70
2018-03-21T01:39:04.843Z,78.00
2018-03-21T01:41:08.230Z,75.50
2018-03-21T01:43:11.606Z,75.30
2018-03-21T01:45:14.944Z,75.30
2018-03-21T01:47:18.294Z,75.10
2018-03-21T01:49:21.706Z,75.20
2018-03-21T01:51:26.559Z,75.30
2018-03-21T01:53:30.703Z,78.00
2018-03-21T01:55:34.038Z,76.50
2018-03-21T01:57:37.425Z,77.90
2018-03-21T01:59:41.769Z,77.50
2018-03-21T02:01:45.261Z,77.50
2018-03-21T02:03:48.590Z,76.60
2018-03-21T02:05:52.121Z,75.50
2018-03-21T02:07:55.754Z,74.50
2018-03-21T02:10:00.704Z,74.90
2018-03-21T02:12:04.044Z,74.80
2018-03-21T02:14:08.258Z,74.70
2018-03-21T02:16:11.650Z,74.70
2018-03-21T02:18:14.991Z,74.80
2018-03-21T02:20:18.349Z,74.10
2018-03-21T02:22:21.711Z,77.00
2018-03-21T02:24:25.072Z,78.10
2018-03-21T02:26:28.466Z,75.80
2018-03-21T02:28:32.298Z,75.70
2018-03-21T02:30:35.683Z,78.40
2018-03-21T02:32:39.443Z,78.00
2018-03-21T02:34:43.563Z,75.60
2018-03-21T02:36:46.921Z,75.60
2018-03-21T02:38:50.258Z,75.80
2018-03-21T02:40:53.651Z,75.60
2018-03-21T02:42:56.994Z,75.40
2018-03-21T02:45:00.338Z,74.80
2018-03-21T02:47:03.684Z,74.60
2018-03-21T02:49:07.672Z,75.30
2018-03-21T02:51:11.087Z,75.60
2018-03-21T02:53:15.944Z,75.80
2018-03-21T02:55:19.300Z,75.80
2018-03-21T02:57:22.626Z,76.10
2018-03-21T02:59:25.974Z,76.20
2018-03-21T03:01:29.338Z,76.20
2018-03-21T03:03:32.707Z,75.60
2018-03-21T03:05:36.092Z,78.60
2018-03-21T03:07:39.456Z,74.60
2018-03-21T03:09:45.413Z,77.70
2018-03-21T03:11:49.558Z,75.50
2018-03-21T03:13:52.895Z,75.50
2018-03-21T03:15:57.153Z,78.20
2018-03-21T03:18:00.499Z,76.80
2018-03-21T03:20:05.017Z,75.00
2018-03-21T03:22:09.183Z,75.30
2018-03-21T03:24:12.542Z,75.30
2018-03-21T03:26:16.659Z,78.20
2018-03-21T03:28:20.771Z,78.40
2018-03-21T03:30:25.750Z,78.70
2018-03-21T03:32:29.138Z,78.70
2018-03-21T03:34:32.503Z,75.60
2018-03-21T03:36:35.975Z,75.30
2018-03-21T03:38:40.320Z,75.10
2018-03-21T03:40:43.817Z,76.40
2018-03-21T03:42:47.185Z,77.90
2018-03-21T03:44:52.226Z,77.70
2018-03-21T03:46:55.881Z,78.00
2018-03-21T03:49:00.085Z,77.80
2018-03-21T03:51:03.448Z,75.10
2018-03-21T03:53:06.776Z,74.90
2018-03-21T03:55:10.666Z,74.70
2018-03-21T03:57:14.039Z,75.40
2018-03-21T03:59:17.893Z,78.60
2018-03-21T04:01:22.863Z,74.10
2018-03-21T04:03:26.232Z,74.00
2018-03-21T04:05:29.631Z,77.80
2018-03-21T04:07:33.064Z,75.10
2018-03-21T04:09:36.520Z,77.70
2018-03-21T04:11:39.920Z,74.80
2018-03-21T04:13:44.770Z,75.50
2018-03-21T04:15:51.516Z,74.60
2018-03-21T04:17:56.065Z,74.90
2018-03-21T04:19:59.524Z,77.30
2018-03-21T04:22:04.458Z,74.10
2018-03-21T04:24:08.697Z,74.40
2018-03-21T04:26:12.090Z,78.20
2018-03-21T04:28:15.454Z,75.00
2018-03-21T04:30:18.830Z,75.20
2018-03-21T04:32:22.246Z,75.20
2018-03-21T04:34:25.580Z,74.70
2018-03-21T04:36:29.693Z,74.20
2018-03-21T04:38:33.032Z,74.80
2018-03-21T04:40:36.406Z,77.90
2018-03-21T04:42:39.749Z,74.30
2018-03-21T04:44:43.086Z,74.20
2018-03-21T04:46:48.403Z,74.00
2018-03-21T04:48:52.048Z,74.00
2018-03-21T04:50:55.403Z,73.60
2018-03-21T04:52:58.807Z,74.00
2018-03-21T04:55:02.178Z,73.90
2018-03-21T04:57:05.626Z,73.80
2018-03-21T04:59:09.027Z,76.80
2018-03-21T05:01:12.446Z,76.50
2018-03-21T05:03:16.781Z,73.90
2018-03-21T05:05:20.919Z,74.60
2018-03-21T05:07:24.328Z,74.60
2018-03-21T05:09:27.653Z,77.00
2018-03-21T05:11:32.017Z,74.30
2018-03-21T05:13:35.484Z,74.20
2018-03-21T05:15:38.855Z,73.90
2018-03-21T05:17:42.985Z,75.40
2018-03-21T05:19:46.477Z,75.40
2018-03-21T05:21:49.861Z,72.60
2018-03-21T05:23:54.064Z,72.70
2018-03-21T05:25:58.189Z,72.10
2018-03-21T05:28:01.539Z,72.20
2018-03-21T05:30:04.938Z,72.80
2018-03-21T05:32:09.160Z,72.80
2018-03-21T05:34:12.545Z,72.80
2018-03-21T05:36:16.034Z,72.70
2018-03-21T05:38:19.417Z,75.30
2018-03-21T05:40:22.829Z,75.60
2018-03-21T05:42:26.346Z,72.80
2018-03-21T05:44:29.812Z,72.80
2018-03-21T05:46:33.984Z,75.30
2018-03-21T05:48:37.317Z,75.30
2018-03-21T05:50:41.003Z,75.10
2018-03-21T05:52:45.213Z,72.60
2018-03-21T05:54:48.578Z,72.70
2018-03-21T05:56:51.934Z,72.70
2018-03-21T05:58:56.079Z,72.60
2018-03-21T06:00:59.447Z,72.50
2018-03-21T06:03:04.531Z,72.70
2018-03-21T06:05:07.871Z,72.70
2018-03-21T06:07:12.030Z,72.80
2018-03-21T06:09:15.408Z,72.80
2018-03-21T06:11:18.770Z,72.80
2018-03-21T06:13:22.193Z,72.90
2018-03-21T06:15:25.592Z,74.30
2018-03-21T06:17:29.790Z,75.90
2018-03-21T06:19:33.202Z,75.80
2018-03-21T06:21:37.861Z,76.50
2018-03-21T06:23:42.017Z,73.60
2018-03-21T06:25:45.363Z,73.60
2018-03-21T06:27:48.720Z,73.60
2018-03-21T06:29:52.094Z,73.80
2018-03-21T06:31:55.430Z,76.60
2018-03-21T06:33:58.793Z,74.00
2018-03-21T06:36:02.132Z,75.10
2018-03-21T06:38:06.312Z,82.70
2018-03-21T06:40:09.689Z,83.00
2018-03-21T06:42:13.049Z,83.40
2018-03-21T06:44:17.234Z,83.20
2018-03-21T06:46:20.666Z,82.90
2018-03-21T06:48:24.026Z,82.60
2018-03-21T06:50:27.416Z,81.90
2018-03-21T06:52:31.551Z,83.60
2018-03-21T06:54:35.664Z,81.20
2018-03-21T06:56:39.903Z,80.90
2018-03-21T06:58:43.300Z,78.90
2018-03-21T07:00:47.278Z,82.00
2018-03-21T07:02:50.666Z,74.00
2018-03-21T07:04:54.030Z,71.40
2018-03-21T07:06:58.711Z,73.80
2018-03-21T07:09:02.113Z,73.90
2018-03-21T07:11:05.498Z,70.90
2018-03-21T07:13:08.863Z,68.80
2018-03-21T07:15:24.095Z,65.10
2018-03-21T07:17:27.492Z,64.20
2018-03-21T07:19:30.837Z,62.30
2018-03-21T07:21:34.909Z,66.10
2018-03-21T07:23:38.325Z,64.90
2018-03-21T07:25:41.672Z,61.40
2018-03-21T07:27:45.036Z,62.80
2018-03-21T07:29:48.372Z,61.60
2018-03-21T07:31:54.324Z,57.70
2018-03-21T07:33:57.692Z,57.50
2018-03-21T07:36:01.110Z,52.30
2018-03-21T07:38:05.274Z,44.30
2018-03-21T07:40:09.398Z,38.60
2018-03-21T07:42:12.727Z,38.80
2018-03-21T07:44:16.672Z,34.60
2018-03-21T07:46:20.036Z,32.50
2018-03-21T07:48:23.416Z,31.70
2018-03-21T07:50:26.783Z,26.50
2018-03-21T07:52:30.134Z,24.00
2018-03-21T07:54:33.550Z,23.40
2018-03-21T07:56:36.943Z,20.50
2018-03-21T07:58:40.320Z,21.50
2018-03-21T08:00:43.658Z,18.20
2018-03-21T08:02:46.996Z,16.40
2018-03-21T08:04:50.391Z,20.20
2018-03-21T08:06:53.744Z,17.30
2018-03-21T08:08:57.095Z,13.80
2018-03-21T08:11:00.426Z,15.50
2018-03-21T08:13:03.773Z,16.50
2018-03-21T08:15:07.159Z,16.60
2018-03-21T08:17:10.481Z,14.80
2018-03-21T08:19:14.635Z,13.80
2018-03-21T08:21:17.976Z,13.40
2018-03-21T08:23:22.090Z,13.40
2018-03-21T08:25:25.559Z,13.40
2018-03-21T08:27:28.906Z,16.80
2018-03-21T08:29:32.267Z,15.30
2018-03-21T08:31:36.354Z,12.00
2018-03-21T08:33:39.697Z,11.80
2018-03-21T08:35:43.135Z,7.90
2018-03-21T08:37:46.460Z,10.90
2018-03-21T08:39:49.868Z,11.30
2018-03-21T08:41:53.782Z,7.20
2018-03-21T08:43:57.103Z,6.30
2018-03-21T08:46:00.449Z,7.00
2018-03-21T08:48:03.764Z,3.00
2018-03-21T08:50:07.321Z,4.60
2018-03-21T08:52:11.458Z,1.00
2018-03-21T08:54:15.545Z,1.10
2018-03-21T08:56:19.630Z,3.10
2018-03-21T08:58:24.535Z,2.30
2018-03-21T09:00:27.848Z,2.30
2018-03-21T09:02:31.145Z,1.00
2018-03-21T09:04:34.569Z,1.00
2018-03-21T09:06:38.663Z,1.00
2018-03-21T09:08:42.754Z,2.80
2018-03-21T09:10:46.072Z,3.00
2018-03-21T09:12:50.141Z,2.60
2018-03-21T09:14:54.291Z,2.50
2018-03-21T09:16:58.358Z,1.00
2018-03-21T09:19:01.686Z,1.00
2018-03-21T09:21:05.958Z,1.00
2018-03-21T09:23:09.289Z,1.00
2018-03-21T09:25:15.020Z,1.00
2018-03-21T09:27:18.395Z,1.00
2018-03-21T09:29:22.832Z,1.00
2018-03-21T09:31:26.137Z,1.00
2018-03-21T09:33:30.379Z,1.00
2018-03-21T09:35:34.395Z,1.00
2018-03-21T09:37:38.642Z,1.00
2018-03-21T09:39:42.552Z,1.00
2018-03-21T09:41:45.886Z,1.00
2018-03-21T09:43:50.140Z,1.00
2018-03-21T09:45:54.855Z,1.00
2018-03-21T09:47:58.295Z,1.00
2018-03-21T09:50:02.885Z,1.00
2018-03-21T09:52:06.231Z,1.00
2018-03-21T09:54:11.155Z,1.00
2018-03-21T09:56:16.630Z,1.00
2018-03-21T09:58:20.856Z,1.00
2018-03-21T10:00:25.099Z,1.00
2018-03-21T10:02:28.411Z,1.00
2018-03-21T10:04:31.730Z,1.00
2018-03-21T10:06:35.078Z,1.00
2018-03-21T10:08:38.418Z,1.00
2018-03-21T10:10:41.744Z,1.00
2018-03-21T10:12:45.815Z,1.00
2018-03-21T10:14:49.129Z,1.00
2018-03-21T10:16:52.476Z,1.00
2018-03-21T10:18:55.772Z,1.00
2018-03-21T10:20:59.083Z,1.00
2018-03-21T10:23:02.393Z,1.00
2018-03-21T10:25:06.502Z,1.00
2018-03-21T10:27:09.809Z,1.00
2018-03-21T10:29:13.148Z,1.00
2018-03-21T10:31:16.475Z,1.00
2018-03-21T10:33:19.806Z,1.00
2018-03-21T10:35:23.150Z,1.00
2018-03-21T10:37:27.274Z,1.00
2018-03-21T10:39:31.372Z,1.00
2018-03-21T10:41:35.464Z,1.00
2018-03-21T10:43:40.339Z,1.00
2018-03-21T10:45:44.477Z,1.00
2018-03-21T10:47:48.530Z,1.00
2018-03-21T10:49:51.849Z,1.00
2018-03-21T10:51:55.163Z,1.00
2018-03-21T10:53:58.521Z,1.00
2018-03-21T10:56:02.118Z,1.00
2018-03-21T10:58:05.453Z,1.00
2018-03-21T11:00:08.802Z,1.00
2018-03-21T11:02:14.975Z,1.00
2018-03-21T11:04:18.283Z,1.00
2018-03-21T11:06:22.833Z,1.00
2018-03-21T11:08:26.209Z,1.00
2018-03-21T11:10:29.538Z,1.00
2018-03-21T11:12:32.952Z,1.00
2018-03-21T11:14:36.250Z,1.00
2018-03-21T11:16:39.564Z,1.00
2018-03-21T11:18:43.558Z,1.00
2018-03-21T11:20:46.910Z,1.00
2018-03-21T11:22:51.288Z,1.00
2018-03-21T11:24:54.584Z,1.00
2018-03-21T11:26:57.995Z,1.00
2018-03-21T11:29:01.302Z,1.00
2018-03-21T11:31:04.647Z,1.00
2018-03-21T11:33:07.954Z,1.00
2018-03-21T11:35:11.339Z,1.00
2018-03-21T11:37:14.646Z,1.00
2018-03-21T11:39:17.970Z,1.00
2018-03-21T11:41:22.057Z,1.00
2018-03-21T11:43:25.361Z,1.00
2018-03-21T11:45:28.711Z,1.00
2018-03-21T11:47:32.017Z,1.00
2018-03-21T11:49:35.331Z,1.00
2018-03-21T11:51:38.738Z,1.00
2018-03-21T11:53:42.014Z,1.00
2018-03-21T11:55:46.122Z,1.00
2018-03-21T11:57:49.433Z,1.00
2018-03-21T11:59:53.505Z,1.00
2018-03-21T12:01:56.817Z,1.00
2018-03-21T12:04:00.166Z,1.00
2018-03-21T12:06:04.588Z,1.00
2018-03-21T12:08:09.455Z,1.00
2018-03-21T12:10:16.614Z,1.00
2018-03-21T12:12:21.238Z,1.00
2018-03-21T12:14:25.944Z,1.00
2018-03-21T12:16:31.381Z,1.00
2018-03-21T12:18:35.580Z,1.00
2018-03-21T12:20:40.135Z,1.00
2018-03-21T12:22:43.951Z,1.00
2018-03-21T12:24:47.340Z,1.00
2018-03-21T12:26:52.361Z,1.00
2018-03-21T12:28:57.055Z,1.00
2018-03-21T12:31:00.424Z,1.00
2018-03-21T12:33:03.739Z,1.00
2018-03-21T12:35:07.946Z,1.00
2018-03-21T12:37:11.843Z,1.00
2018-03-21T12:39:17.068Z,1.00
2018-03-21T12:41:20.519Z,1.00
2018-03-21T12:43:23.873Z,1.00
2018-03-21T12:45:27.286Z,1.00
2018-03-21T12:47:31.733Z,1.00
2018-03-21T12:49:35.101Z,1.00
2018-03-21T12:51:38.418Z,1.00
2018-03-21T12:53:41.796Z,1.00
2018-03-21T12:55:46.027Z,1.00
2018-03-21T12:57:49.493Z,1.00
2018-03-21T12:59:53.571Z,1.00
2018-03-21T13:01:56.891Z,1.00
2018-03-21T13:04:01.052Z,1.00
2018-03-21T13:06:04.546Z,1.00
2018-03-21T13:08:07.906Z,1.00
2018-03-21T13:10:12.008Z,1.00
2018-03-21T13:12:15.541Z,1.00
2018-03-21T13:14:18.891Z,1.00
2018-03-21T13:16:22.974Z,1.00
2018-03-21T13:18:28.024Z,1.00
2018-03-21T13:20:31.817Z,1.00
2018-03-21T13:22:35.199Z,1.00
2018-03-21T13:24:38.593Z,1.00
2018-03-21T13:26:42.900Z,1.00
2018-03-21T13:28:47.726Z,1.00
2018-03-21T13:30:51.061Z,1.00
2018-03-21T13:32:54.423Z,1.00
2018-03-21T13:34:57.913Z,1.00
2018-03-21T13:37:01.214Z,1.00
2018-03-21T13:39:05.352Z,1.00
2018-03-21T13:41:08.663Z,1.00
2018-03-21T13:43:12.362Z,1.00
2018-03-21T13:45:16.446Z,1.00
2018-03-21T13:47:19.765Z,1.00
2018-03-21T13:49:23.120Z,1.00
2018-03-21T13:51:27.318Z,1.00
2018-03-21T13:53:31.704Z,1.00
2018-03-21T13:55:35.267Z,1.00
2018-03-21T13:57:39.417Z,1.00
2018-03-21T13:59:43.513Z,1.00
2018-03-21T14:01:47.882Z,1.00
2018-03-21T14:03:51.215Z,1.00
2018-03-21T14:05:54.959Z,1.00
2018-03-21T14:07:59.256Z,1.00
2018-03-21T14:10:04.549Z,1.00
2018-03-21T14:12:08.111Z,1.00
2018-03-21T14:14:11.844Z,1.00
2018-03-21T14:16:15.219Z,1.00
2018-03-21T14:18:19.878Z,1.00
2018-03-21T14:20:23.213Z,1.00
2018-03-21T14:22:27.285Z,1.00
2018-03-21T14:24:30.605Z,1.00
2018-03-21T14:26:34.028Z,1.00
2018-03-21T14:28:37.667Z,1.00
2018-03-21T14:30:41.081Z,1.00
2018-03-21T14:32:44.415Z,1.00
2018-03-21T14:34:48.557Z,1.00
2018-03-21T14:36:51.929Z,1.00
2018-03-21T14:38:55.398Z,1.00
2018-03-21T14:40:59.506Z,1.00
2018-03-21T14:43:03.586Z,1.00
2018-03-21T14:45:06.927Z,1.00
2018-03-21T14:47:10.507Z,1.00
2018-03-21T14:49:13.978Z,1.00
2018-03-21T14:51:18.076Z,1.00
2018-03-21T14:53:21.453Z,1.00
2018-03-21T14:55:24.783Z,1.00
2018-03-21T14:57:29.048Z,1.00
2018-03-21T14:59:32.466Z,1.00
2018-03-21T15:01:35.845Z,1.00
2018-03-21T15:03:39.340Z,1.00
2018-03-21T15:05:43.242Z,1.00
2018-03-21T15:07:46.595Z,1.00
2018-03-21T15:09:49.963Z,1.00
2018-03-21T15:11:53.285Z,1.00
2018-03-21T15:13:57.390Z,1.00
2018-03-21T15:16:01.146Z,1.00
2018-03-21T15:18:06.785Z,1.00
2018-03-21T15:20:11.059Z,1.00
2018-03-21T15:22:14.379Z,1.00
2018-03-21T15:24:17.817Z,1.00
2018-03-21T15:26:21.278Z,1.00
2018-03-21T15:28:24.662Z,1.00
2018-03-21T15:30:28.044Z,1.00
2018-03-21T15:32:31.343Z,1.00
2018-03-21T15:34:35.444Z,1.00
2018-03-21T15:36:38.760Z,1.00
2018-03-21T15:38:42.849Z,1.00
2018-03-21T15:40:46.186Z,1.00
2018-03-21T15:42:49.489Z,1.00
2018-03-21T15:44:52.854Z,1.00
2018-03-21T15:46:56.983Z,1.00
2018-03-21T15:49:00.292Z,1.00
2018-03-21T15:51:03.661Z,1.00
2018-03-21T15:53:06.989Z,1.00
2018-03-21T15:55:10.373Z,1.00
2018-03-21T15:57:13.723Z,1.00
2018-03-21T15:59:17.824Z,1.00
2018-03-21T16:01:21.990Z,1.00
2018-03-21T16:03:26.141Z,1.00
2018-03-21T16:05:29.522Z,1.00
2018-03-21T16:07:35.023Z,1.00
2018-03-21T16:09:39.825Z,1.00
2018-03-21T16:11:43.205Z,1.00
2018-03-21T16:13:47.327Z,1.00
2018-03-21T16:15:50.670Z,1.00
2018-03-21T16:17:53.978Z,1.00
2018-03-21T16:19:57.286Z,1.00
2018-03-21T16:22:00.649Z,1.00
2018-03-21T16:24:04.010Z,1.00
2018-03-21T16:26:07.318Z,1.00
2018-03-21T16:28:10.626Z,1.00
2018-03-21T16:30:13.961Z,1.00
2018-03-21T16:32:17.318Z,1.00
2018-03-21T16:34:20.614Z,1.00
2018-03-21T16:36:24.725Z,1.00
2018-03-21T16:38:28.842Z,1.00
2018-03-21T16:40:33.885Z,1.00
2018-03-21T16:42:37.450Z,1.00
2018-03-21T16:44:40.800Z,1.00
2018-03-21T16:46:44.102Z,1.00
2018-03-21T16:48:47.439Z,1.00
2018-03-21T16:50:50.811Z,1.00
2018-03-21T16:52:54.197Z,1.00
2018-03-21T16:54:57.516Z,1.00
2018-03-21T16:57:01.604Z,1.00
2018-03-21T16:59:04.994Z,1.00
2018-03-21T17:01:08.394Z,1.00
2018-03-21T17:03:12.473Z,1.00
2018-03-21T17:05:16.547Z,1.00
2018-03-21T17:07:19.873Z,1.00
2018-03-21T17:09:23.235Z,1.00
2018-03-21T17:11:27.118Z,1.00
2018-03-21T17:13:31.210Z,1.00
2018-03-21T17:15:36.085Z,1.00
2018-03-21T17:17:39.434Z,1.00
2018-03-21T17:19:43.685Z,1.00
2018-03-21T17:21:47.032Z,1.00
2018-03-21T17:23:51.124Z,1.00
2018-03-21T17:25:55.245Z,1.00
2018-03-21T17:27:58.605Z,1.00
2018-03-21T17:30:01.964Z,1.00
2018-03-21T17:32:05.379Z,1.00
2018-03-21T17:34:08.685Z,1.00
2018-03-21T17:36:12.049Z,1.00
2018-03-21T17:38:16.043Z,1.00
2018-03-21T17:40:19.379Z,1.00
2018-03-21T17:42:23.633Z,1.00
2018-03-21T17:44:26.962Z,1.00
2018-03-21T17:46:30.301Z,1.00
2018-03-21T17:48:34.386Z,1.00
2018-03-21T17:50:37.726Z,1.00
2018-03-21T17:52:41.077Z,1.00
2018-03-21T17:54:45.589Z,1.00
2018-03-21T17:56:48.944Z,1.00
2018-03-21T17:58:54.256Z,1.00
2018-03-21T18:00:57.637Z,1.00
2018-03-21T18:03:02.054Z,1.00
2018-03-21T18:05:05.455Z,1.00
2018-03-21T18:07:09.518Z,1.00
2018-03-21T18:09:12.944Z,1.00
2018-03-21T18:11:18.197Z,1.00
2018-03-21T18:13:22.591Z,1.00
2018-03-21T18:15:26.828Z,1.00
2018-03-21T18:17:31.520Z,1.00
2018-03-21T18:19:35.207Z,1.00
2018-03-21T18:21:38.708Z,1.00
2018-03-21T18:23:43.261Z,1.00
2018-03-21T18:25:48.305Z,1.00
2018-03-21T18:27:52.154Z,1.00
2018-03-21T18:29:56.291Z,1.00
2018-03-21T18:32:01.478Z,1.00
2018-03-21T18:34:05.620Z,1.00
2018-03-21T18:36:10.130Z,1.00
2018-03-21T18:38:14.584Z,1.00
2018-03-21T18:40:18.098Z,1.00
2018-03-21T18:42:21.628Z,1.00
2018-03-21T18:44:25.053Z,1.00
2018-03-21T18:46:29.198Z,1.00
2018-03-21T18:48:32.602Z,1.00
2018-03-21T18:50:35.958Z,1.00
2018-03-21T18:52:39.382Z,1.00
2018-03-21T18:54:42.778Z,1.00
2018-03-21T18:56:46.194Z,1.00
2018-03-21T18:58:49.555Z,1.00
2018-03-21T19:00:52.918Z,1.00
2018-03-21T19:02:56.309Z,1.00
2018-03-21T19:04:59.746Z,1.00
2018-03-21T19:07:03.880Z,1.00
2018-03-21T19:09:08.050Z,1.00
2018-03-21T19:11:11.448Z,1.00
2018-03-21T19:13:20.146Z,1.00
2018-03-21T19:15:18.373Z,1.00
2018-03-21T19:17:22.379Z,1.00
2018-03-21T19:19:26.183Z,1.00
2018-03-21T19:21:30.533Z,1.00
2018-03-21T19:23:33.871Z,1.00
2018-03-21T19:25:37.208Z,1.00
2018-03-21T19:27:41.314Z,1.00
2018-03-21T19:29:46.626Z,1.00
2018-03-21T19:31:51.292Z,1.00
2018-03-21T19:33:54.835Z,1.00
2018-03-21T19:35:58.307Z,1.00
2018-03-21T19:38:02.744Z,1.00
2018-03-21T19:40:06.538Z,1.00
2018-03-21T19:42:11.065Z,1.00
2018-03-21T19:44:15.145Z,1.00
2018-03-21T19:46:18.590Z,1.00
2018-03-21T19:48:23.805Z,1.00
2018-03-21T19:50:28.406Z,1.00
2018-03-21T19:52:32.922Z,1.00
2018-03-21T19:54:37.920Z,1.00
2018-03-21T19:56:41.852Z,1.00
2018-03-21T19:58:46.821Z,1.00
2018-03-21T20:00:50.199Z,1.00
2018-03-21T20:02:55.204Z,1.70
2018-03-21T20:04:59.737Z,1.00
2018-03-21T20:07:03.125Z,1.00
2018-03-21T20:09:07.411Z,1.00
2018-03-21T20:11:11.510Z,2.70
2018-03-21T20:13:15.574Z,1.10
2018-03-21T20:15:20.590Z,1.00
2018-03-21T20:17:27.076Z,1.20
2018-03-21T20:19:33.570Z,1.00
2018-03-21T20:21:39.175Z,1.00
2018-03-21T20:23:44.324Z,1.00
2018-03-21T20:25:47.920Z,1.10
2018-03-21T20:27:52.026Z,1.00
2018-03-21T20:29:56.460Z,1.00
2018-03-21T20:32:00.540Z,1.40
2018-03-21T20:34:04.113Z,1.40
2018-03-21T20:36:09.801Z,1.40
2018-03-21T20:38:14.837Z,1.60
2018-03-21T20:40:19.130Z,1.60
2018-03-21T20:42:22.557Z,2.10
2018-03-21T20:44:26.729Z,2.10
2018-03-21T20:46:30.302Z,4.40
2018-03-21T20:48:34.514Z,5.40
2018-03-21T20:50:37.894Z,5.40
2018-03-21T20:52:41.228Z,3.20
2018-03-21T20:54:44.568Z,3.30
2018-03-21T20:56:47.897Z,5.20
2018-03-21T20:58:51.215Z,3.50
2018-03-21T21:00:55.411Z,4.70
2018-03-21T21:02:58.735Z,4.80
2018-03-21T21:05:02.110Z,5.40
2018-03-21T21:07:05.448Z,2.80
2018-03-21T21:09:09.673Z,4.70
2018-03-21T21:11:13.019Z,2.70
2018-03-21T21:13:17.120Z,3.00
2018-03-21T21:15:21.263Z,3.30
2018-03-21T21:17:25.350Z,3.40
2018-03-21T21:19:29.830Z,3.40
2018-03-21T21:21:33.245Z,6.10
2018-03-21T21:23:37.397Z,6.40
2018-03-21T21:25:40.719Z,4.60
2018-03-21T21:27:44.134Z,4.50
2018-03-21T21:29:47.486Z,4.80
2018-03-21T21:31:50.830Z,4.10
2018-03-21T21:33:54.938Z,4.60
2018-03-21T21:35:59.030Z,5.30
2018-03-21T21:38:02.429Z,4.70
2018-03-21T21:40:06.685Z,4.60
2018-03-21T21:42:10.007Z,7.00
2018-03-21T21:44:13.337Z,4.90
2018-03-21T21:46:17.569Z,7.20
2018-03-21T21:48:20.886Z,5.60
2018-03-21T21:50:25.155Z,5.80
2018-03-21T21:52:29.238Z,9.40
2018-03-21T21:54:32.570Z,9.30
2018-03-21T21:56:35.894Z,7.70
2018-03-21T21:58:39.222Z,7.70
2018-03-21T22:00:42.533Z,8.10
2018-03-21T22:02:46.850Z,10.70
2018-03-21T22:04:50.191Z,10.70
2018-03-21T22:06:53.558Z,11.30
2018-03-21T22:08:56.892Z,10.70
2018-03-21T22:11:00.551Z,10.70
2018-03-21T22:13:03.886Z,10.50
2018-03-21T22:15:07.996Z,11.30
2018-03-21T22:17:12.108Z,13.90
2018-03-21T22:19:16.331Z,14.20
2018-03-21T22:21:20.565Z,12.10
2018-03-21T22:23:24.752Z,13.10
2018-03-21T22:25:28.831Z,13.60
2018-03-21T22:27:33.042Z,13.40
2018-03-21T22:29:36.743Z,13.60
2018-03-21T22:31:40.851Z,16.20
2018-03-21T22:33:44.185Z,16.20
2018-03-21T22:35:48.386Z,13.50
2018-03-21T22:37:51.731Z,15.60
2018-03-21T22:39:55.347Z,13.50
2018-03-21T22:41:59.405Z,16.10
2018-03-21T22:44:03.344Z,13.20
2018-03-21T22:46:06.684Z,13.20
2018-03-21T22:48:10.024Z,13.30
2018-03-21T22:50:14.534Z,13.50
2018-03-21T22:52:17.911Z,14.00
2018-03-21T22:54:21.304Z,13.40
2018-03-21T22:56:24.666Z,13.10
2018-03-21T22:58:28.913Z,13.10
2018-03-21T23:00:32.233Z,12.20
2018-03-21T23:02:35.616Z,13.30
2018-03-21T23:04:39.007Z,14.90
2018-03-21T23:06:43.136Z,15.90
2018-03-21T23:08:47.254Z,14.30
2018-03-21T23:10:50.654Z,14.30
2018-03-21T23:12:54.756Z,13.30
2018-03-21T23:14:58.083Z,13.40
2018-03-21T23:17:01.470Z,12.70
2018-03-21T23:19:04.810Z,13.30
2018-03-21T23:21:08.155Z,12.80
2018-03-21T23:23:11.601Z,12.80
2018-03-21T23:25:14.943Z,15.50
2018-03-21T23:27:18.333Z,13.10
2018-03-21T23:29:22.268Z,12.40
2018-03-21T23:31:25.609Z,12.80
2018-03-21T23:33:29.695Z,12.80
2018-03-21T23:35:35.773Z,13.00
2018-03-21T23:37:40.138Z,13.20
2018-03-21T23:39:43.511Z,13.20
2018-03-21T23:41:47.974Z,13.30
2018-03-21T23:43:52.116Z,13.30
2018-03-21T23:45:55.483Z,12.80
2018-03-21T23:48:00.866Z,13.60
2018-03-21T23:50:05.008Z,13.00
2018-03-21T23:52:09.248Z,14.60
2018-03-21T23:54:12.654Z,12.20
2018-03-21T23:56:17.207Z,12.10
2018-03-21T23:58:20.596Z,12.20
